Eagle Turin — 9VMG6 — position and weather

sailwx.info

Track history (hours):
 
Tides and Currents Weather Stations Pressure Air Temp Water Temp Dewpoint Dewpoint Depression Visibility Wind Speed Wind Dir Waves Ship Positions

Eagle Turin

Last reported at 2016-May-31 03:33 UTC. Time now 2016-May-31 03:59 UTC.
Position N 54°19' E 007°17'.

Length 246 m; draft 14.8 m.

Type: Tanker. MMSI: 565770000.

Date/timePositionNaut miles runAvg speedWind from/ knotsBaromVisibWave heightAir tempDewpointWater temp
2016-May-31 03:33N 54°19' E 007°17'1313.3
2016-May-31 02:33N 54°30' E 007°05'1313.1
2016-May-31 01:33N 54°41' E 006°53'1312.7
2016-May-31 00:34N 54°52' E 006°42'1211.8
2016-May-30 23:33N 55°04' E 006°38'1212.0
2016-May-30 22:34N 55°16' E 006°37'1211.9
2016-May-30 21:33N 55°27' E 006°38'7312.2
2016-May-30 15:32N 56°41' E 006°38'2411.2
2016-May-30 13:24N 57°03' E 006°54'1112.5
2016-May-30 12:33N 57°08' E 007°11'1312.8
2016-May-30 11:33N 57°15' E 007°32'10112.5
2016-May-30 03:29N 57°49' E 010°28'1111.9
2016-May-30 02:33N 57°47' E 010°48'10 9.6
2016-May-30 01:33N 57°40' E 011°01'1110.5
2016-May-30 00:33N 57°33' E 011°16'10 9.8
2016-May-29 23:33N 57°25' E 011°27'1010.4
2016-May-29 22:33N 57°16' E 011°34'1010.4
2016-May-29 21:33N 57°06' E 011°40'48 9.2
2016-May-29 16:21N 56°19' E 011°25'8 9.9
2016-May-29 15:30N 56°11' E 011°18'1010.5
2016-May-29 14:33N 56°03' E 011°07'1010.3
2016-May-29 13:33N 55°55' E 010°56'28 9.5
2016-May-29 10:33N 55°27' E 010°58'10 9.6
2016-May-29 09:33N 55°18' E 011°03'9 8.5
2016-May-29 08:33N 55°09' E 010°60'1110.7
2016-May-29 07:33N 54°59' E 010°58'1010.5
2016-May-29 06:33N 54°49' E 010°50'10 9.7
2016-May-29 05:33N 54°39' E 010°50'1111.4
2016-May-29 04:33N 54°36' E 011°08'1211.7
2016-May-29 03:33N 54°31' E 011°27'1111.4
2016-May-29 02:33N 54°27' E 011°45'1110.8
2016-May-29 01:33N 54°26' E 012°04'8 8.3
2016-May-29 00:33N 54°32' E 012°14'9 9.2
2016-May-28 23:33N 54°39' E 012°24'1010.4
2016-May-28 22:33N 54°44' E 012°40'1512.0
2016-May-28 21:18N 54°51' E 013°03'912.5
2016-May-28 20:33N 54°54' E 013°19'1312.7
2016-May-28 19:33N 54°58' E 013°39'1212.4
2016-May-28 18:33N 55°02' E 013°60'1212.0
2016-May-28 17:33N 55°08' E 014°18'1212.4
2016-May-28 16:33N 55°15' E 014°36'10 9.5
2016-May-28 15:33N 55°19' E 014°51'7 6.8
2016-May-28 14:33N 55°22' E 015°02'1312.6
2016-May-28 13:34N 55°28' E 015°21'6512.7
2016-May-28 08:24N 55°53' E 017°08'1012.5
2016-May-28 07:33N 55°56' E 017°26'1412.4
2016-May-28 06:27N 56°01' E 017°49'1212.7
2016-May-28 05:28N 56°08' E 018°08'25912.4
2016-May-27 08:32N 59°35' E 023°02'1212.5
2016-May-27 07:33N 59°39' E 023°25'1312.5
2016-May-27 06:33N 59°42' E 023°49'1312.7
2016-May-27 05:32N 59°46' E 024°13'5012.5
2016-May-27 01:33N 59°55' E 025°50'1212.2
2016-May-27 00:33N 59°59' E 026°13'1211.9
2016-May-26 23:33N 60°01' E 026°37'1211.9
2016-May-26 22:33N 59°59' E 026°60'1211.8
2016-May-26 21:33N 60°05' E 027°21'1212.3
2016-May-26 20:33N 60°11' E 027°42'1211.5
2016-May-26 19:33N 60°10' E 028°05'1111.3
2016-May-26 18:33N 60°04' E 028°25'9 8.5
2016-May-26 17:33N 59°57' E 028°35'9 9.0
2016-May-26 16:33N 59°50' E 028°26'7 7.1
2016-May-26 15:33N 59°43' E 028°25'0 0.1
2016-May-26 14:30N 59°43' E 028°26'0 0.0
2016-May-26 13:30N 59°43' E 028°26'0 0.0
2016-May-26 12:33N 59°43' E 028°26'0 0.0
2016-May-26 11:33N 59°43' E 028°26'0 0.0
2016-May-26 10:33N 59°43' E 028°26'0 0.0
2016-May-26 09:33N 59°43' E 028°26'0 0.0
2016-May-26 08:33N 59°43' E 028°26'0 0.0
2016-May-26 07:33N 59°43' E 028°26'0 0.0
2016-May-26 06:24N 59°43' E 028°26'0 0.0
2016-May-26 05:24N 59°43' E 028°26'0 0.0
2016-May-26 04:24N 59°43' E 028°26'0 0.0
2016-May-26 03:27N 59°43' E 028°26'0 0.0
2016-May-26 02:27N 59°43' E 028°26'0 0.0
2016-May-26 01:30N 59°43' E 028°26'0 0.0
2016-May-26 00:30N 59°43' E 028°26'0 0.0
2016-May-25 23:30N 59°43' E 028°26'0 0.0
2016-May-25 22:33N 59°43' E 028°26'0 0.0
2016-May-25 21:33N 59°43' E 028°26'0 0.0
2016-May-25 20:33N 59°43' E 028°26'0 0.0
2016-May-25 19:33N 59°43' E 028°26'0 0.0
2016-May-25 18:33N 59°43' E 028°26'0 0.0
2016-May-25 17:33N 59°43' E 028°26'0 0.0
2016-May-25 16:24N 59°43' E 028°26'0 0.0
2016-May-25 15:24N 59°43' E 028°26'0 0.0
2016-May-25 14:24N 59°43' E 028°26'0 0.0
2016-May-25 13:27N 59°43' E 028°26'0 0.0
2016-May-25 12:27N 59°43' E 028°26'0 0.0
2016-May-25 11:30N 59°43' E 028°26'0 0.0
2016-May-25 10:30N 59°43' E 028°26'0 0.5
2016-May-25 09:33N 59°42' E 028°25'2 2.2
2016-May-25 08:33N 59°44' E 028°23'9 9.0
2016-May-25 07:33N 59°53' E 028°29'8 8.3
2016-May-25 06:33N 60°00' E 028°36'2 2.0
2016-May-25 05:33N 60°02' E 028°35'5 4.9
2016-May-25 04:33N 60°03' E 028°26'1211.9
2016-May-25 03:33N 60°08' E 028°05'1211.7
2016-May-25 02:33N 60°09' E 027°41'1212.4
2016-May-25 01:33N 60°03' E 027°20'1212.1
2016-May-25 00:33N 59°58' E 026°58'1212.3
2016-May-24 23:33N 59°59' E 026°33'1312.4
2016-May-24 22:32N 59°55' E 026°09'1212.3
2016-May-24 21:33N 59°52' E 025°46'1212.4
2016-May-24 20:33N 59°49' E 025°22'1512.3
2016-May-24 19:21N 59°45' E 024°53'1012.5
2016-May-24 18:33N 59°43' E 024°34'1211.9
2016-May-24 17:33N 59°38' E 024°13'8 1.4
2016-May-24 11:22N 59°30' E 024°13'1112.9
2016-May-24 10:33N 59°30' E 023°52'1414.4
2016-May-24 09:33N 59°29' E 023°24'1414.5
2016-May-24 08:34N 59°27' E 022°56'1414.4
2016-May-24 07:33N 59°21' E 022°30'1514.3
2016-May-24 06:32N 59°13' E 022°07'30513.3
2016-May-23 07:34N 55°36' E 015°28'1413.9
2016-May-23 06:33N 55°30' E 015°06'1413.9
2016-May-23 05:34N 55°22' E 014°46'1211.8
2016-May-23 04:33N 55°13' E 014°32'1413.9
2016-May-23 03:33N 55°03' E 014°14'1313.5
2016-May-23 02:34N 54°58' E 013°53'1413.9
2016-May-23 01:33N 54°53' E 013°30'1413.9
2016-May-23 00:33N 54°49' E 013°07'1414.1
2016-May-22 23:33N 54°45' E 012°44'1514.0
2016-May-22 22:30N 54°37' E 012°23'1313.3
2016-May-22 21:33N 54°26' E 012°11'1313.2
2016-May-22 20:33N 54°25' E 011°48'1312.9
2016-May-22 19:33N 54°30' E 011°28'1313.2
2016-May-22 18:34N 54°36' E 011°08'1313.0
2016-May-22 17:33N 54°44' E 010°49'1211.6
2016-May-22 16:33N 54°55' E 010°54'1211.9
2016-May-22 15:33N 55°06' E 011°02'1211.6
2016-May-22 14:33N 55°18' E 011°03'3511.6
2016-May-22 11:31N 55°52' E 010°52'1313.1
2016-May-22 10:33N 56°03' E 011°06'1313.4
2016-May-22 09:33N 56°14' E 011°19'1313.5
2016-May-22 08:33N 56°25' E 011°31'1413.5
2016-May-22 07:33N 56°37' E 011°43'1312.7
2016-May-22 06:33N 56°49' E 011°49'1313.1
2016-May-22 05:33N 57°02' E 011°41'1313.0
2016-May-22 04:33N 57°14' E 011°33'1313.0
2016-May-22 03:33N 57°26' E 011°25'1312.8
2016-May-22 02:34N 57°36' E 011°08'1313.1
2016-May-22 01:34N 57°44' E 010°50'10 9.7
2016-May-22 00:34N 57°48' E 010°34'1312.8
2016-May-21 23:33N 57°51' E 010°10'25013.7
2016-May-21 05:19N 54°48' E 005°01'  
Track history (hours):
 
Tides and Currents Weather Stations Pressure Air Temp Water Temp Dewpoint Dewpoint Depression Visibility Wind Speed Wind Dir Waves Ship Positions

Eagle Turin

Last reported at 2016-May-31 03:33 UTC. Time now 2016-May-31 03:59 UTC.
Position N 54°19' E 007°17'.

Length 246 m; draft 14.8 m.

Type: Tanker. MMSI: 565770000.

Date/timePositionNaut miles runAvg speedWind from/ knotsBaromVisibWave heightAir tempDewpointWater temp
2016-May-31 03:33N 54°19' E 007°17'1313.3
2016-May-31 02:33N 54°30' E 007°05'1313.1
2016-May-31 01:33N 54°41' E 006°53'1312.7
2016-May-31 00:34N 54°52' E 006°42'1211.8
2016-May-30 23:33N 55°04' E 006°38'1212.0
2016-May-30 22:34N 55°16' E 006°37'1211.9
2016-May-30 21:33N 55°27' E 006°38'7312.2
2016-May-30 15:32N 56°41' E 006°38'2411.2
2016-May-30 13:24N 57°03' E 006°54'1112.5
2016-May-30 12:33N 57°08' E 007°11'1312.8
2016-May-30 11:33N 57°15' E 007°32'10112.5
2016-May-30 03:29N 57°49' E 010°28'1111.9
2016-May-30 02:33N 57°47' E 010°48'10 9.6
2016-May-30 01:33N 57°40' E 011°01'1110.5
2016-May-30 00:33N 57°33' E 011°16'10 9.8
2016-May-29 23:33N 57°25' E 011°27'1010.4
2016-May-29 22:33N 57°16' E 011°34'1010.4
2016-May-29 21:33N 57°06' E 011°40'48 9.2
2016-May-29 16:21N 56°19' E 011°25'8 9.9
2016-May-29 15:30N 56°11' E 011°18'1010.5
2016-May-29 14:33N 56°03' E 011°07'1010.3
2016-May-29 13:33N 55°55' E 010°56'28 9.5
2016-May-29 10:33N 55°27' E 010°58'10 9.6
2016-May-29 09:33N 55°18' E 011°03'9 8.5
2016-May-29 08:33N 55°09' E 010°60'1110.7
2016-May-29 07:33N 54°59' E 010°58'1010.5
2016-May-29 06:33N 54°49' E 010°50'10 9.7
2016-May-29 05:33N 54°39' E 010°50'1111.4
2016-May-29 04:33N 54°36' E 011°08'1211.7
2016-May-29 03:33N 54°31' E 011°27'1111.4
2016-May-29 02:33N 54°27' E 011°45'1110.8
2016-May-29 01:33N 54°26' E 012°04'8 8.3
2016-May-29 00:33N 54°32' E 012°14'9 9.2
2016-May-28 23:33N 54°39' E 012°24'1010.4
2016-May-28 22:33N 54°44' E 012°40'1512.0
2016-May-28 21:18N 54°51' E 013°03'912.5
2016-May-28 20:33N 54°54' E 013°19'1312.7
2016-May-28 19:33N 54°58' E 013°39'1212.4
2016-May-28 18:33N 55°02' E 013°60'1212.0
2016-May-28 17:33N 55°08' E 014°18'1212.4
2016-May-28 16:33N 55°15' E 014°36'10 9.5
2016-May-28 15:33N 55°19' E 014°51'7 6.8
2016-May-28 14:33N 55°22' E 015°02'1312.6
2016-May-28 13:34N 55°28' E 015°21'6512.7
2016-May-28 08:24N 55°53' E 017°08'1012.5
2016-May-28 07:33N 55°56' E 017°26'1412.4
2016-May-28 06:27N 56°01' E 017°49'1212.7
2016-May-28 05:28N 56°08' E 018°08'25912.4
2016-May-27 08:32N 59°35' E 023°02'1212.5
2016-May-27 07:33N 59°39' E 023°25'1312.5
2016-May-27 06:33N 59°42' E 023°49'1312.7
2016-May-27 05:32N 59°46' E 024°13'5012.5
2016-May-27 01:33N 59°55' E 025°50'1212.2
2016-May-27 00:33N 59°59' E 026°13'1211.9
2016-May-26 23:33N 60°01' E 026°37'1211.9
2016-May-26 22:33N 59°59' E 026°60'1211.8
2016-May-26 21:33N 60°05' E 027°21'1212.3
2016-May-26 20:33N 60°11' E 027°42'1211.5
2016-May-26 19:33N 60°10' E 028°05'1111.3
2016-May-26 18:33N 60°04' E 028°25'9 8.5
2016-May-26 17:33N 59°57' E 028°35'9 9.0
2016-May-26 16:33N 59°50' E 028°26'7 7.1
2016-May-26 15:33N 59°43' E 028°25'0 0.1
2016-May-26 14:30N 59°43' E 028°26'0 0.0
2016-May-26 13:30N 59°43' E 028°26'0 0.0
2016-May-26 12:33N 59°43' E 028°26'0 0.0
2016-May-26 11:33N 59°43' E 028°26'0 0.0
2016-May-26 10:33N 59°43' E 028°26'0 0.0
2016-May-26 09:33N 59°43' E 028°26'0 0.0
2016-May-26 08:33N 59°43' E 028°26'0 0.0
2016-May-26 07:33N 59°43' E 028°26'0 0.0
2016-May-26 06:24N 59°43' E 028°26'0 0.0
2016-May-26 05:24N 59°43' E 028°26'0 0.0
2016-May-26 04:24N 59°43' E 028°26'0 0.0
2016-May-26 03:27N 59°43' E 028°26'0 0.0
2016-May-26 02:27N 59°43' E 028°26'0 0.0
2016-May-26 01:30N 59°43' E 028°26'0 0.0
2016-May-26 00:30N 59°43' E 028°26'0 0.0
2016-May-25 23:30N 59°43' E 028°26'0 0.0
2016-May-25 22:33N 59°43' E 028°26'0 0.0
2016-May-25 21:33N 59°43' E 028°26'0 0.0
2016-May-25 20:33N 59°43' E 028°26'0 0.0
2016-May-25 19:33N 59°43' E 028°26'0 0.0
2016-May-25 18:33N 59°43' E 028°26'0 0.0
2016-May-25 17:33N 59°43' E 028°26'0 0.0
2016-May-25 16:24N 59°43' E 028°26'0 0.0
2016-May-25 15:24N 59°43' E 028°26'0 0.0
2016-May-25 14:24N 59°43' E 028°26'0 0.0
2016-May-25 13:27N 59°43' E 028°26'0 0.0
2016-May-25 12:27N 59°43' E 028°26'0 0.0
2016-May-25 11:30N 59°43' E 028°26'0 0.0
2016-May-25 10:30N 59°43' E 028°26'0 0.5
2016-May-25 09:33N 59°42' E 028°25'2 2.2
2016-May-25 08:33N 59°44' E 028°23'9 9.0
2016-May-25 07:33N 59°53' E 028°29'8 8.3
2016-May-25 06:33N 60°00' E 028°36'2 2.0
2016-May-25 05:33N 60°02' E 028°35'5 4.9
2016-May-25 04:33N 60°03' E 028°26'1211.9
2016-May-25 03:33N 60°08' E 028°05'1211.7
2016-May-25 02:33N 60°09' E 027°41'1212.4
2016-May-25 01:33N 60°03' E 027°20'1212.1
2016-May-25 00:33N 59°58' E 026°58'1212.3
2016-May-24 23:33N 59°59' E 026°33'1312.4
2016-May-24 22:32N 59°55' E 026°09'1212.3
2016-May-24 21:33N 59°52' E 025°46'1212.4
2016-May-24 20:33N 59°49' E 025°22'1512.3
2016-May-24 19:21N 59°45' E 024°53'1012.5
2016-May-24 18:33N 59°43' E 024°34'1211.9
2016-May-24 17:33N 59°38' E 024°13'8 1.4
2016-May-24 11:22N 59°30' E 024°13'1112.9
2016-May-24 10:33N 59°30' E 023°52'1414.4
2016-May-24 09:33N 59°29' E 023°24'1414.5
2016-May-24 08:34N 59°27' E 022°56'1414.4
2016-May-24 07:33N 59°21' E 022°30'1514.3
2016-May-24 06:32N 59°13' E 022°07'30513.3
2016-May-23 07:34N 55°36' E 015°28'1413.9
2016-May-23 06:33N 55°30' E 015°06'1413.9
2016-May-23 05:34N 55°22' E 014°46'1211.8
2016-May-23 04:33N 55°13' E 014°32'1413.9
2016-May-23 03:33N 55°03' E 014°14'1313.5
2016-May-23 02:34N 54°58' E 013°53'1413.9
2016-May-23 01:33N 54°53' E 013°30'1413.9
2016-May-23 00:33N 54°49' E 013°07'1414.1
2016-May-22 23:33N 54°45' E 012°44'1514.0
2016-May-22 22:30N 54°37' E 012°23'1313.3
2016-May-22 21:33N 54°26' E 012°11'1313.2
2016-May-22 20:33N 54°25' E 011°48'1312.9
2016-May-22 19:33N 54°30' E 011°28'1313.2
2016-May-22 18:34N 54°36' E 011°08'1313.0
2016-May-22 17:33N 54°44' E 010°49'1211.6
2016-May-22 16:33N 54°55' E 010°54'1211.9
2016-May-22 15:33N 55°06' E 011°02'1211.6
2016-May-22 14:33N 55°18' E 011°03'3511.6
2016-May-22 11:31N 55°52' E 010°52'1313.1
2016-May-22 10:33N 56°03' E 011°06'1313.4
2016-May-22 09:33N 56°14' E 011°19'1313.5
2016-May-22 08:33N 56°25' E 011°31'1413.5
2016-May-22 07:33N 56°37' E 011°43'1312.7
2016-May-22 06:33N 56°49' E 011°49'1313.1
2016-May-22 05:33N 57°02' E 011°41'1313.0
2016-May-22 04:33N 57°14' E 011°33'1313.0
2016-May-22 03:33N 57°26' E 011°25'1312.8
2016-May-22 02:34N 57°36' E 011°08'1313.1
2016-May-22 01:34N 57°44' E 010°50'10 9.7
2016-May-22 00:34N 57°48' E 010°34'1312.8
2016-May-21 23:33N 57°51' E 010°10'25013.7
2016-May-21 05:19N 54°48' E 005°01'  

Dump ship's entire track history